KR-0313 weather

Park Hyatt Busan Heliport
Busan, Busan Gwang'yeogsi, South Korea

Public forecast

Using degrees Celsius for public forecast. Weather courtesy of forecast.io.

METAR (pilot weather report)

Closest report is Gimhae International Airport, 10.1 nm (18.7 km) W. Retrieved 2019/08/24 18:00 UTC (55 minutes ago):

RKPK 241800Z 36007KT CAVOK 21/18 Q1012

TAF (pilot weather forecast)

Closest forecast is Gimhae International Airport, 10.1 nm (18.7 km) W. Retrieved 2019/08/24 18:00 UTC (55 minutes ago):

TAF RKPK 241700Z 2418/2524 33006KT 9999 SCT030 SCT200 TN19/2420Z TX28/2505Z BECMG 2504/2505 21008KT BECMG 2512/2513 33006KT